sensor_id;sensor_type;location;lat;lon;timestamp;P1;durP1;ratioP1;P2;durP2;ratioP2
61905;SDS011;47863;55.766;37.672;2022-09-11T00:01:08;41.45;;;14.98;;
61905;SDS011;47863;55.766;37.672;2022-09-11T00:03:38;36.70;;;15.75;;
61905;SDS011;47863;55.766;37.672;2022-09-11T00:06:09;41.80;;;15.38;;
61905;SDS011;47863;55.766;37.672;2022-09-11T00:08:37;36.50;;;15.27;;
61905;SDS011;47863;55.766;37.672;2022-09-11T00:11:05;35.47;;;14.88;;
61905;SDS011;47863;55.766;37.672;2022-09-11T00:13:41;37.40;;;15.23;;
61905;SDS011;47863;55.766;37.672;2022-09-11T00:16:17;28.55;;;13.73;;
61905;SDS011;47863;55.766;37.672;2022-09-11T00:18:45;37.83;;;14.85;;
61905;SDS011;47863;55.766;37.672;2022-09-11T00:21:11;33.42;;;14.68;;
61905;SDS011;47863;55.766;37.672;2022-09-11T00:23:37;32.72;;;14.15;;
61905;SDS011;47863;55.766;37.672;2022-09-11T00:26:02;31.90;;;14.38;;
61905;SDS011;47863;55.766;37.672;2022-09-11T00:28:29;36.03;;;14.35;;
61905;SDS011;47863;55.766;37.672;2022-09-11T00:30:56;43.40;;;15.00;;
61905;SDS011;47863;55.766;37.672;2022-09-11T00:33:22;44.95;;;15.63;;
61905;SDS011;47863;55.766;37.672;2022-09-11T00:35:52;35.92;;;15.05;;
61905;SDS011;47863;55.766;37.672;2022-09-11T00:38:27;39.40;;;14.32;;
61905;SDS011;47863;55.766;37.672;2022-09-11T00:40:55;34.78;;;14.80;;
61905;SDS011;47863;55.766;37.672;2022-09-11T00:43:22;37.63;;;14.65;;
61905;SDS011;47863;55.766;37.672;2022-09-11T00:45:54;29.98;;;13.60;;
61905;SDS011;47863;55.766;37.672;2022-09-11T00:48:24;29.02;;;14.20;;
61905;SDS011;47863;55.766;37.672;2022-09-11T00:50:54;30.67;;;13.77;;
61905;SDS011;47863;55.766;37.672;2022-09-11T00:53:24;33.70;;;13.45;;
61905;SDS011;47863;55.766;37.672;2022-09-11T00:55:56;33.58;;;13.52;;
61905;SDS011;47863;55.766;37.672;2022-09-11T00:58:25;31.80;;;14.75;;
61905;SDS011;47863;55.766;37.672;2022-09-11T01:00:55;30.13;;;13.45;;
61905;SDS011;47863;55.766;37.672;2022-09-11T01:03:22;29.55;;;14.27;;
61905;SDS011;47863;55.766;37.672;2022-09-11T01:05:50;42.22;;;14.50;;
61905;SDS011;47863;55.766;37.672;2022-09-11T01:08:17;40.83;;;13.90;;
61905;SDS011;47863;55.766;37.672;2022-09-11T01:16:04;40.70;;;14.80;;
61905;SDS011;47863;55.766;37.672;2022-09-11T01:27:56;46.45;;;16.52;;
61905;SDS011;47863;55.766;37.672;2022-09-11T01:30:30;37.80;;;16.00;;
61905;SDS011;47863;55.766;37.672;2022-09-11T01:33:06;37.35;;;15.48;;
61905;SDS011;47863;55.766;37.672;2022-09-11T01:35:37;47.63;;;16.15;;
61905;SDS011;47863;55.766;37.672;2022-09-11T01:43:26;40.80;;;17.00;;
61905;SDS011;47863;55.766;37.672;2022-09-11T01:45:57;44.58;;;17.60;;
61905;SDS011;47863;55.766;37.672;2022-09-11T01:48:27;46.20;;;17.55;;
61905;SDS011;47863;55.766;37.672;2022-09-11T01:50:57;47.17;;;17.65;;
61905;SDS011;47863;55.766;37.672;2022-09-11T01:53:27;44.65;;;17.00;;
61905;SDS011;47863;55.766;37.672;2022-09-11T01:56:00;57.07;;;18.67;;
61905;SDS011;47863;55.766;37.672;2022-09-11T01:58:30;47.15;;;17.58;;
61905;SDS011;47863;55.766;37.672;2022-09-11T02:01:02;47.50;;;18.30;;
61905;SDS011;47863;55.766;37.672;2022-09-11T02:03:48;45.20;;;18.08;;
61905;SDS011;47863;55.766;37.672;2022-09-11T02:06:34;52.38;;;18.38;;
61905;SDS011;47863;55.766;37.672;2022-09-11T02:09:06;45.20;;;18.17;;
61905;SDS011;47863;55.766;37.672;2022-09-11T02:11:35;47.15;;;17.27;;
61905;SDS011;47863;55.766;37.672;2022-09-11T02:19:30;51.45;;;17.60;;
61905;SDS011;47863;55.766;37.672;2022-09-11T02:21:56;42.05;;;16.98;;
61905;SDS011;47863;55.766;37.672;2022-09-11T02:24:23;49.17;;;17.10;;
61905;SDS011;47863;55.766;37.672;2022-09-11T02:26:54;43.83;;;16.45;;
61905;SDS011;47863;55.766;37.672;2022-09-11T02:29:31;48.53;;;18.13;;
61905;SDS011;47863;55.766;37.672;2022-09-11T02:31:58;41.65;;;17.33;;
61905;SDS011;47863;55.766;37.672;2022-09-11T02:34:30;43.45;;;17.15;;
61905;SDS011;47863;55.766;37.672;2022-09-11T02:37:12;45.80;;;16.88;;
61905;SDS011;47863;55.766;37.672;2022-09-11T02:45:19;47.83;;;16.90;;
61905;SDS011;47863;55.766;37.672;2022-09-11T02:53:49;41.17;;;16.95;;
61905;SDS011;47863;55.766;37.672;2022-09-11T02:59:08;44.72;;;17.45;;
61905;SDS011;47863;55.766;37.672;2022-09-11T03:01:51;40.72;;;15.30;;
61905;SDS011;47863;55.766;37.672;2022-09-11T03:04:20;45.47;;;16.88;;
61905;SDS011;47863;55.766;37.672;2022-09-11T03:06:47;39.40;;;16.17;;
61905;SDS011;47863;55.766;37.672;2022-09-11T03:09:14;44.28;;;15.88;;
61905;SDS011;47863;55.766;37.672;2022-09-11T03:11:40;36.75;;;15.57;;
61905;SDS011;47863;55.766;37.672;2022-09-11T03:14:07;40.30;;;15.45;;
61905;SDS011;47863;55.766;37.672;2022-09-11T03:16:32;40.55;;;16.23;;
61905;SDS011;47863;55.766;37.672;2022-09-11T03:18:58;38.70;;;15.95;;
61905;SDS011;47863;55.766;37.672;2022-09-11T03:21:24;39.53;;;15.43;;
61905;SDS011;47863;55.766;37.672;2022-09-11T03:23:49;34.65;;;15.25;;
61905;SDS011;47863;55.766;37.672;2022-09-11T03:26:15;39.85;;;16.40;;
61905;SDS011;47863;55.766;37.672;2022-09-11T03:28:41;41.03;;;15.90;;
61905;SDS011;47863;55.766;37.672;2022-09-11T03:31:08;31.95;;;15.02;;
61905;SDS011;47863;55.766;37.672;2022-09-11T03:33:34;37.72;;;15.48;;
61905;SDS011;47863;55.766;37.672;2022-09-11T03:36:00;31.58;;;15.82;;
61905;SDS011;47863;55.766;37.672;2022-09-11T03:38:25;35.40;;;14.40;;
61905;SDS011;47863;55.766;37.672;2022-09-11T03:40:51;35.25;;;15.07;;
61905;SDS011;47863;55.766;37.672;2022-09-11T03:43:19;37.35;;;14.95;;
61905;SDS011;47863;55.766;37.672;2022-09-11T03:45:47;41.72;;;16.05;;
61905;SDS011;47863;55.766;37.672;2022-09-11T03:48:14;31.23;;;14.15;;
61905;SDS011;47863;55.766;37.672;2022-09-11T03:50:40;42.67;;;15.77;;
61905;SDS011;47863;55.766;37.672;2022-09-11T03:53:06;32.40;;;14.40;;
61905;SDS011;47863;55.766;37.672;2022-09-11T03:55:31;34.47;;;14.52;;
61905;SDS011;47863;55.766;37.672;2022-09-11T03:57:57;32.78;;;14.70;;
61905;SDS011;47863;55.766;37.672;2022-09-11T04:00:24;33.08;;;13.77;;
61905;SDS011;47863;55.766;37.672;2022-09-11T04:02:50;28.42;;;14.02;;
61905;SDS011;47863;55.766;37.672;2022-09-11T04:05:16;34.55;;;14.35;;
61905;SDS011;47863;55.766;37.672;2022-09-11T04:07:42;25.20;;;13.07;;
61905;SDS011;47863;55.766;37.672;2022-09-11T04:10:08;42.45;;;15.45;;
61905;SDS011;47863;55.766;37.672;2022-09-11T04:12:33;36.45;;;15.57;;
61905;SDS011;47863;55.766;37.672;2022-09-11T04:14:59;31.83;;;13.35;;
61905;SDS011;47863;55.766;37.672;2022-09-11T04:17:28;27.80;;;13.82;;
61905;SDS011;47863;55.766;37.672;2022-09-11T04:19:54;30.52;;;12.98;;
61905;SDS011;47863;55.766;37.672;2022-09-11T04:22:19;24.40;;;12.68;;
61905;SDS011;47863;55.766;37.672;2022-09-11T04:24:45;25.77;;;11.63;;
61905;SDS011;47863;55.766;37.672;2022-09-11T04:27:11;26.45;;;11.77;;
61905;SDS011;47863;55.766;37.672;2022-09-11T04:29:37;21.98;;;11.48;;
61905;SDS011;47863;55.766;37.672;2022-09-11T04:32:02;27.02;;;12.07;;
61905;SDS011;47863;55.766;37.672;2022-09-11T04:34:28;20.45;;;11.30;;
61905;SDS011;47863;55.766;37.672;2022-09-11T04:36:54;27.08;;;11.27;;
61905;SDS011;47863;55.766;37.672;2022-09-11T04:39:20;22.60;;;11.48;;
61905;SDS011;47863;55.766;37.672;2022-09-11T04:41:46;29.35;;;10.50;;
61905;SDS011;47863;55.766;37.672;2022-09-11T04:44:12;23.40;;;11.18;;
61905;SDS011;47863;55.766;37.672;2022-09-11T04:46:38;21.48;;;11.02;;
61905;SDS011;47863;55.766;37.672;2022-09-11T04:49:05;27.63;;;10.90;;
61905;SDS011;47863;55.766;37.672;2022-09-11T04:51:33;26.38;;;11.05;;
61905;SDS011;47863;55.766;37.672;2022-09-11T04:54:01;23.95;;;10.43;;
61905;SDS011;47863;55.766;37.672;2022-09-11T04:56:28;19.55;;;10.13;;
61905;SDS011;47863;55.766;37.672;2022-09-11T04:58:56;21.65;;;10.93;;
61905;SDS011;47863;55.766;37.672;2022-09-11T05:01:24;27.15;;;10.90;;
61905;SDS011;47863;55.766;37.672;2022-09-11T05:03:51;21.15;;;10.07;;
61905;SDS011;47863;55.766;37.672;2022-09-11T05:06:18;25.30;;;10.65;;
61905;SDS011;47863;55.766;37.672;2022-09-11T05:08:44;20.50;;;10.45;;
61905;SDS011;47863;55.766;37.672;2022-09-11T05:11:14;22.40;;;9.63;;
61905;SDS011;47863;55.766;37.672;2022-09-11T05:13:41;20.98;;;9.80;;
61905;SDS011;47863;55.766;37.672;2022-09-11T05:16:08;23.45;;;10.63;;
61905;SDS011;47863;55.766;37.672;2022-09-11T05:18:36;23.98;;;10.40;;
61905;SDS011;47863;55.766;37.672;2022-09-11T05:21:04;21.70;;;10.30;;
61905;SDS011;47863;55.766;37.672;2022-09-11T05:23:32;27.65;;;10.27;;
61905;SDS011;47863;55.766;37.672;2022-09-11T05:26:00;23.13;;;10.25;;
61905;SDS011;47863;55.766;37.672;2022-09-11T05:28:27;24.27;;;10.43;;
61905;SDS011;47863;55.766;37.672;2022-09-11T05:30:53;21.38;;;10.82;;
61905;SDS011;47863;55.766;37.672;2022-09-11T05:33:20;24.50;;;11.15;;
61905;SDS011;47863;55.766;37.672;2022-09-11T05:35:50;26.70;;;10.63;;
61905;SDS011;47863;55.766;37.672;2022-09-11T05:38:17;25.67;;;10.32;;
61905;SDS011;47863;55.766;37.672;2022-09-11T05:40:46;20.70;;;10.77;;
61905;SDS011;47863;55.766;37.672;2022-09-11T05:43:14;24.73;;;10.07;;
61905;SDS011;47863;55.766;37.672;2022-09-11T05:45:44;26.27;;;9.60;;
61905;SDS011;47863;55.766;37.672;2022-09-11T05:48:17;22.08;;;9.88;;
61905;SDS011;47863;55.766;37.672;2022-09-11T05:50:50;17.85;;;9.10;;
61905;SDS011;47863;55.766;37.672;2022-09-11T05:53:17;23.45;;;10.23;;
61905;SDS011;47863;55.766;37.672;2022-09-11T05:55:42;20.13;;;9.07;;
61905;SDS011;47863;55.766;37.672;2022-09-11T05:58:08;18.15;;;7.97;;
61905;SDS011;47863;55.766;37.672;2022-09-11T06:00:33;22.58;;;8.82;;
61905;SDS011;47863;55.766;37.672;2022-09-11T06:02:59;17.38;;;8.35;;
61905;SDS011;47863;55.766;37.672;2022-09-11T06:05:25;17.98;;;8.15;;
61905;SDS011;47863;55.766;37.672;2022-09-11T06:07:50;18.90;;;8.30;;
61905;SDS011;47863;55.766;37.672;2022-09-11T06:10:16;23.67;;;8.88;;
61905;SDS011;47863;55.766;37.672;2022-09-11T06:12:42;23.80;;;7.63;;
61905;SDS011;47863;55.766;37.672;2022-09-11T06:15:07;20.05;;;7.72;;
61905;SDS011;47863;55.766;37.672;2022-09-11T06:17:33;17.77;;;7.90;;
61905;SDS011;47863;55.766;37.672;2022-09-11T06:19:59;19.05;;;8.15;;
61905;SDS011;47863;55.766;37.672;2022-09-11T06:22:25;19.25;;;8.00;;
61905;SDS011;47863;55.766;37.672;2022-09-11T06:24:53;18.15;;;7.18;;
61905;SDS011;47863;55.766;37.672;2022-09-11T06:27:19;12.43;;;5.63;;
61905;SDS011;47863;55.766;37.672;2022-09-11T06:29:45;17.67;;;7.00;;
61905;SDS011;47863;55.766;37.672;2022-09-11T06:32:10;14.82;;;6.22;;
61905;SDS011;47863;55.766;37.672;2022-09-11T06:34:36;16.40;;;6.55;;
61905;SDS011;47863;55.766;37.672;2022-09-11T06:37:02;8.50;;;3.90;;
61905;SDS011;47863;55.766;37.672;2022-09-11T06:39:28;10.90;;;5.63;;
61905;SDS011;47863;55.766;37.672;2022-09-11T06:41:53;14.27;;;5.82;;
61905;SDS011;47863;55.766;37.672;2022-09-11T06:44:19;10.80;;;5.97;;
61905;SDS011;47863;55.766;37.672;2022-09-11T06:46:44;17.17;;;7.05;;
61905;SDS011;47863;55.766;37.672;2022-09-11T06:49:11;10.63;;;5.07;;
61905;SDS011;47863;55.766;37.672;2022-09-11T06:51:36;17.92;;;5.45;;
61905;SDS011;47863;55.766;37.672;2022-09-11T06:54:04;11.95;;;4.93;;
61905;SDS011;47863;55.766;37.672;2022-09-11T06:56:30;10.27;;;5.07;;
61905;SDS011;47863;55.766;37.672;2022-09-11T06:58:56;8.18;;;4.68;;
61905;SDS011;47863;55.766;37.672;2022-09-11T07:01:23;14.65;;;4.55;;
61905;SDS011;47863;55.766;37.672;2022-09-11T07:03:50;7.82;;;3.60;;
61905;SDS011;47863;55.766;37.672;2022-09-11T07:06:26;9.07;;;3.63;;
61905;SDS011;47863;55.766;37.672;2022-09-11T07:08:55;8.23;;;3.60;;
61905;SDS011;47863;55.766;37.672;2022-09-11T07:11:25;7.88;;;4.25;;
61905;SDS011;47863;55.766;37.672;2022-09-11T07:13:51;8.93;;;3.90;;
61905;SDS011;47863;55.766;37.672;2022-09-11T07:16:18;12.13;;;4.10;;
61905;SDS011;47863;55.766;37.672;2022-09-11T07:18:44;8.18;;;3.25;;
61905;SDS011;47863;55.766;37.672;2022-09-11T07:23:39;9.25;;;5.22;;
61905;SDS011;47863;55.766;37.672;2022-09-11T07:26:07;8.25;;;3.83;;
61905;SDS011;47863;55.766;37.672;2022-09-11T07:28:35;15.35;;;4.47;;
61905;SDS011;47863;55.766;37.672;2022-09-11T07:31:05;9.00;;;4.50;;
61905;SDS011;47863;55.766;37.672;2022-09-11T07:33:39;15.98;;;4.78;;
61905;SDS011;47863;55.766;37.672;2022-09-11T07:36:10;9.77;;;5.27;;
61905;SDS011;47863;55.766;37.672;2022-09-11T07:38:37;9.18;;;4.47;;
61905;SDS011;47863;55.766;37.672;2022-09-11T07:41:04;23.45;;;5.05;;
61905;SDS011;47863;55.766;37.672;2022-09-11T07:43:30;11.35;;;5.35;;
61905;SDS011;47863;55.766;37.672;2022-09-11T07:45:55;9.48;;;4.85;;
61905;SDS011;47863;55.766;37.672;2022-09-11T07:48:21;11.82;;;3.92;;
61905;SDS011;47863;55.766;37.672;2022-09-11T07:51:00;13.98;;;4.07;;
61905;SDS011;47863;55.766;37.672;2022-09-11T07:53:31;10.10;;;3.30;;
61905;SDS011;47863;55.766;37.672;2022-09-11T07:56:05;12.48;;;4.15;;
61905;SDS011;47863;55.766;37.672;2022-09-11T07:58:35;11.60;;;3.53;;
61905;SDS011;47863;55.766;37.672;2022-09-11T08:01:06;10.25;;;3.70;;
61905;SDS011;47863;55.766;37.672;2022-09-11T08:03:33;7.75;;;2.90;;
61905;SDS011;47863;55.766;37.672;2022-09-11T08:06:03;9.38;;;3.08;;
61905;SDS011;47863;55.766;37.672;2022-09-11T08:08:31;7.10;;;3.50;;
61905;SDS011;47863;55.766;37.672;2022-09-11T08:11:00;5.05;;;3.08;;
61905;SDS011;47863;55.766;37.672;2022-09-11T08:13:29;8.27;;;3.35;;
61905;SDS011;47863;55.766;37.672;2022-09-11T08:15:54;8.05;;;3.15;;
61905;SDS011;47863;55.766;37.672;2022-09-11T08:18:21;8.02;;;2.88;;
61905;SDS011;47863;55.766;37.672;2022-09-11T08:20:47;5.68;;;2.75;;
61905;SDS011;47863;55.766;37.672;2022-09-11T08:23:13;4.55;;;2.70;;
61905;SDS011;47863;55.766;37.672;2022-09-11T08:25:42;7.57;;;2.45;;
61905;SDS011;47863;55.766;37.672;2022-09-11T08:28:08;7.40;;;2.72;;
61905;SDS011;47863;55.766;37.672;2022-09-11T08:30:34;7.20;;;2.65;;
61905;SDS011;47863;55.766;37.672;2022-09-11T08:33:03;7.10;;;2.63;;
61905;SDS011;47863;55.766;37.672;2022-09-11T08:35:32;9.52;;;2.33;;
61905;SDS011;47863;55.766;37.672;2022-09-11T08:37:59;8.55;;;2.83;;
61905;SDS011;47863;55.766;37.672;2022-09-11T08:40:29;12.48;;;2.95;;
61905;SDS011;47863;55.766;37.672;2022-09-11T08:42:59;8.18;;;2.70;;
61905;SDS011;47863;55.766;37.672;2022-09-11T08:45:28;6.50;;;3.20;;
61905;SDS011;47863;55.766;37.672;2022-09-11T08:47:58;6.30;;;2.72;;
61905;SDS011;47863;55.766;37.672;2022-09-11T08:50:37;9.77;;;2.67;;
61905;SDS011;47863;55.766;37.672;2022-09-11T08:53:05;7.28;;;2.55;;
61905;SDS011;47863;55.766;37.672;2022-09-11T08:55:42;7.80;;;2.70;;
61905;SDS011;47863;55.766;37.672;2022-09-11T09:12:04;11.35;;;3.08;;
61905;SDS011;47863;55.766;37.672;2022-09-11T09:17:38;5.25;;;2.67;;
61905;SDS011;47863;55.766;37.672;2022-09-11T09:20:14;4.45;;;2.20;;
61905;SDS011;47863;55.766;37.672;2022-09-11T09:25:21;4.50;;;2.22;;
61905;SDS011;47863;55.766;37.672;2022-09-11T09:27:48;4.80;;;2.50;;
61905;SDS011;47863;55.766;37.672;2022-09-11T09:30:20;6.97;;;2.63;;
61905;SDS011;47863;55.766;37.672;2022-09-11T09:35:39;6.32;;;2.47;;
61905;SDS011;47863;55.766;37.672;2022-09-11T09:38:14;8.05;;;2.53;;
61905;SDS011;47863;55.766;37.672;2022-09-11T09:46:43;4.57;;;1.88;;
61905;SDS011;47863;55.766;37.672;2022-09-11T09:49:11;4.00;;;2.00;;
61905;SDS011;47863;55.766;37.672;2022-09-11T09:51:41;5.47;;;1.70;;
61905;SDS011;47863;55.766;37.672;2022-09-11T09:54:09;7.18;;;2.25;;
61905;SDS011;47863;55.766;37.672;2022-09-11T09:56:43;5.57;;;1.80;;
61905;SDS011;47863;55.766;37.672;2022-09-11T09:59:18;9.35;;;2.00;;
61905;SDS011;47863;55.766;37.672;2022-09-11T10:01:51;4.80;;;1.73;;
61905;SDS011;47863;55.766;37.672;2022-09-11T10:04:21;9.38;;;2.00;;
61905;SDS011;47863;55.766;37.672;2022-09-11T10:06:52;4.22;;;2.13;;
61905;SDS011;47863;55.766;37.672;2022-09-11T10:09:29;5.72;;;2.10;;
61905;SDS011;47863;55.766;37.672;2022-09-11T10:14:31;5.82;;;2.20;;
61905;SDS011;47863;55.766;37.672;2022-09-11T10:17:01;7.95;;;2.00;;
61905;SDS011;47863;55.766;37.672;2022-09-11T10:19:40;9.07;;;2.40;;
61905;SDS011;47863;55.766;37.672;2022-09-11T10:27:46;6.55;;;2.30;;
61905;SDS011;47863;55.766;37.672;2022-09-11T10:32:55;8.90;;;4.50;;
61905;SDS011;47863;55.766;37.672;2022-09-11T10:35:24;6.47;;;2.20;;
61905;SDS011;47863;55.766;37.672;2022-09-11T10:38:11;3.78;;;2.10;;
61905;SDS011;47863;55.766;37.672;2022-09-11T10:40:51;4.88;;;2.25;;
61905;SDS011;47863;55.766;37.672;2022-09-11T10:43:21;7.30;;;2.63;;
61905;SDS011;47863;55.766;37.672;2022-09-11T10:46:03;4.55;;;2.33;;
61905;SDS011;47863;55.766;37.672;2022-09-11T10:48:50;6.43;;;2.40;;
61905;SDS011;47863;55.766;37.672;2022-09-11T10:51:18;4.57;;;2.20;;
61905;SDS011;47863;55.766;37.672;2022-09-11T10:56:29;4.28;;;1.85;;
61905;SDS011;47863;55.766;37.672;2022-09-11T10:59:01;5.93;;;2.15;;
61905;SDS011;47863;55.766;37.672;2022-09-11T11:01:31;5.93;;;2.35;;
61905;SDS011;47863;55.766;37.672;2022-09-11T11:03:57;5.07;;;2.10;;
61905;SDS011;47863;55.766;37.672;2022-09-11T11:27:47;6.10;;;2.30;;
61905;SDS011;47863;55.766;37.672;2022-09-11T11:36:08;5.07;;;2.33;;
61905;SDS011;47863;55.766;37.672;2022-09-11T11:38:50;5.40;;;1.95;;
61905;SDS011;47863;55.766;37.672;2022-09-11T11:44:10;6.38;;;2.78;;
61905;SDS011;47863;55.766;37.672;2022-09-11T11:46:42;6.15;;;2.80;;
61905;SDS011;47863;55.766;37.672;2022-09-11T11:51:48;6.00;;;2.53;;
61905;SDS011;47863;55.766;37.672;2022-09-11T11:54:22;6.50;;;2.95;;
61905;SDS011;47863;55.766;37.672;2022-09-11T11:56:58;7.45;;;2.72;;
61905;SDS011;47863;55.766;37.672;2022-09-11T11:59:35;6.47;;;2.95;;
61905;SDS011;47863;55.766;37.672;2022-09-11T12:04:44;4.78;;;2.63;;
61905;SDS011;47863;55.766;37.672;2022-09-11T12:07:32;5.55;;;2.70;;
61905;SDS011;47863;55.766;37.672;2022-09-11T12:09:59;6.15;;;2.63;;
61905;SDS011;47863;55.766;37.672;2022-09-11T12:12:30;7.32;;;2.28;;
61905;SDS011;47863;55.766;37.672;2022-09-11T12:17:30;7.95;;;2.67;;
61905;SDS011;47863;55.766;37.672;2022-09-11T12:23:06;9.38;;;2.90;;
61905;SDS011;47863;55.766;37.672;2022-09-11T12:28:33;8.77;;;2.63;;
61905;SDS011;47863;55.766;37.672;2022-09-11T12:41:43;5.53;;;2.83;;
61905;SDS011;47863;55.766;37.672;2022-09-11T12:44:29;12.02;;;2.75;;
61905;SDS011;47863;55.766;37.672;2022-09-11T12:49:22;5.82;;;1.95;;
61905;SDS011;47863;55.766;37.672;2022-09-11T12:51:53;4.68;;;2.00;;
61905;SDS011;47863;55.766;37.672;2022-09-11T12:54:28;6.90;;;2.13;;
61905;SDS011;47863;55.766;37.672;2022-09-11T12:57:06;7.13;;;2.20;;
61905;SDS011;47863;55.766;37.672;2022-09-11T12:59:38;9.85;;;2.15;;
61905;SDS011;47863;55.766;37.672;2022-09-11T13:04:57;10.90;;;1.98;;
61905;SDS011;47863;55.766;37.672;2022-09-11T13:07:25;5.38;;;1.60;;
61905;SDS011;47863;55.766;37.672;2022-09-11T13:13:52;3.47;;;1.50;;
61905;SDS011;47863;55.766;37.672;2022-09-11T13:16:45;6.93;;;1.95;;
61905;SDS011;47863;55.766;37.672;2022-09-11T13:19:06;2.78;;;1.50;;
61905;SDS011;47863;55.766;37.672;2022-09-11T13:21:38;4.43;;;1.73;;
61905;SDS011;47863;55.766;37.672;2022-09-11T13:26:47;7.63;;;2.13;;
61905;SDS011;47863;55.766;37.672;2022-09-11T13:29:19;3.13;;;1.58;;
61905;SDS011;47863;55.766;37.672;2022-09-11T13:31:47;3.03;;;1.70;;
61905;SDS011;47863;55.766;37.672;2022-09-11T13:34:15;3.67;;;1.23;;
61905;SDS011;47863;55.766;37.672;2022-09-11T13:36:42;5.88;;;1.60;;
61905;SDS011;47863;55.766;37.672;2022-09-11T13:39:11;5.00;;;1.50;;
61905;SDS011;47863;55.766;37.672;2022-09-11T13:41:40;4.75;;;1.52;;
61905;SDS011;47863;55.766;37.672;2022-09-11T13:44:12;5.63;;;1.58;;
61905;SDS011;47863;55.766;37.672;2022-09-11T13:47:18;7.60;;;1.80;;
61905;SDS011;47863;55.766;37.672;2022-09-11T13:49:45;6.13;;;1.75;;
61905;SDS011;47863;55.766;37.672;2022-09-11T13:52:13;4.10;;;1.60;;
61905;SDS011;47863;55.766;37.672;2022-09-11T13:54:40;6.57;;;1.73;;
61905;SDS011;47863;55.766;37.672;2022-09-11T13:57:21;6.85;;;1.60;;
61905;SDS011;47863;55.766;37.672;2022-09-11T13:59:49;4.20;;;1.70;;
61905;SDS011;47863;55.766;37.672;2022-09-11T14:07:29;4.75;;;1.58;;
61905;SDS011;47863;55.766;37.672;2022-09-11T14:10:05;3.25;;;1.60;;
61905;SDS011;47863;55.766;37.672;2022-09-11T14:12:45;4.32;;;1.60;;
61905;SDS011;47863;55.766;37.672;2022-09-11T14:15:19;5.15;;;2.08;;
61905;SDS011;47863;55.766;37.672;2022-09-11T14:17:51;3.10;;;1.73;;
61905;SDS011;47863;55.766;37.672;2022-09-11T14:20:18;3.40;;;1.63;;
61905;SDS011;47863;55.766;37.672;2022-09-11T14:22:44;4.68;;;1.83;;
61905;SDS011;47863;55.766;37.672;2022-09-11T14:25:18;5.45;;;1.80;;
61905;SDS011;47863;55.766;37.672;2022-09-11T14:27:46;4.75;;;1.40;;
61905;SDS011;47863;55.766;37.672;2022-09-11T14:33:14;3.08;;;1.65;;
61905;SDS011;47863;55.766;37.672;2022-09-11T14:35:41;2.85;;;1.60;;
61905;SDS011;47863;55.766;37.672;2022-09-11T14:38:09;3.47;;;1.60;;
61905;SDS011;47863;55.766;37.672;2022-09-11T14:40:37;2.67;;;1.60;;
61905;SDS011;47863;55.766;37.672;2022-09-11T14:43:16;2.75;;;1.60;;
61905;SDS011;47863;55.766;37.672;2022-09-11T14:45:48;3.22;;;1.70;;
61905;SDS011;47863;55.766;37.672;2022-09-11T14:48:14;6.63;;;1.40;;
61905;SDS011;47863;55.766;37.672;2022-09-11T14:50:40;4.15;;;1.50;;
61905;SDS011;47863;55.766;37.672;2022-09-11T14:53:08;3.78;;;1.58;;
61905;SDS011;47863;55.766;37.672;2022-09-11T14:55:42;7.43;;;1.63;;
61905;SDS011;47863;55.766;37.672;2022-09-11T14:58:07;3.65;;;1.48;;
61905;SDS011;47863;55.766;37.672;2022-09-11T15:00:33;3.55;;;1.77;;
61905;SDS011;47863;55.766;37.672;2022-09-11T15:02:59;7.30;;;1.88;;
61905;SDS011;47863;55.766;37.672;2022-09-11T15:05:24;2.90;;;1.67;;
61905;SDS011;47863;55.766;37.672;2022-09-11T15:07:51;6.43;;;1.50;;
61905;SDS011;47863;55.766;37.672;2022-09-11T15:10:17;8.55;;;1.75;;
61905;SDS011;47863;55.766;37.672;2022-09-11T15:12:43;4.25;;;1.50;;
61905;SDS011;47863;55.766;37.672;2022-09-11T15:15:09;7.15;;;1.75;;
61905;SDS011;47863;55.766;37.672;2022-09-11T15:17:35;4.28;;;1.40;;
61905;SDS011;47863;55.766;37.672;2022-09-11T15:20:01;3.40;;;1.30;;
61905;SDS011;47863;55.766;37.672;2022-09-11T15:22:28;6.22;;;1.95;;
61905;SDS011;47863;55.766;37.672;2022-09-11T15:24:55;3.40;;;1.63;;
61905;SDS011;47863;55.766;37.672;2022-09-11T15:27:22;5.90;;;1.60;;
61905;SDS011;47863;55.766;37.672;2022-09-11T15:29:49;5.90;;;1.52;;
61905;SDS011;47863;55.766;37.672;2022-09-11T15:32:15;6.40;;;2.00;;
61905;SDS011;47863;55.766;37.672;2022-09-11T15:34:41;5.70;;;1.88;;
61905;SDS011;47863;55.766;37.672;2022-09-11T15:37:08;7.85;;;2.20;;
61905;SDS011;47863;55.766;37.672;2022-09-11T15:39:33;3.05;;;1.85;;
61905;SDS011;47863;55.766;37.672;2022-09-11T15:41:59;9.85;;;2.08;;
61905;SDS011;47863;55.766;37.672;2022-09-11T15:44:28;5.38;;;1.60;;
61905;SDS011;47863;55.766;37.672;2022-09-11T15:46:55;8.63;;;2.00;;
61905;SDS011;47863;55.766;37.672;2022-09-11T15:49:22;3.88;;;1.80;;
61905;SDS011;47863;55.766;37.672;2022-09-11T15:51:49;4.13;;;1.73;;
61905;SDS011;47863;55.766;37.672;2022-09-11T15:54:15;11.25;;;2.30;;
61905;SDS011;47863;55.766;37.672;2022-09-11T15:56:42;6.32;;;2.20;;
61905;SDS011;47863;55.766;37.672;2022-09-11T15:59:12;4.45;;;2.00;;
61905;SDS011;47863;55.766;37.672;2022-09-11T16:01:39;7.65;;;2.10;;
61905;SDS011;47863;55.766;37.672;2022-09-11T16:04:07;13.40;;;2.20;;
61905;SDS011;47863;55.766;37.672;2022-09-11T16:06:35;5.68;;;2.30;;
61905;SDS011;47863;55.766;37.672;2022-09-11T16:09:07;6.22;;;3.20;;
61905;SDS011;47863;55.766;37.672;2022-09-11T16:11:35;6.65;;;3.05;;
61905;SDS011;47863;55.766;37.672;2022-09-11T16:14:05;6.88;;;2.25;;
61905;SDS011;47863;55.766;37.672;2022-09-11T16:16:32;8.68;;;2.75;;
61905;SDS011;47863;55.766;37.672;2022-09-11T16:18:58;4.35;;;2.20;;
61905;SDS011;47863;55.766;37.672;2022-09-11T16:21:25;9.07;;;1.90;;
61905;SDS011;47863;55.766;37.672;2022-09-11T16:23:52;8.95;;;2.47;;
61905;SDS011;47863;55.766;37.672;2022-09-11T16:26:19;6.20;;;2.40;;
61905;SDS011;47863;55.766;37.672;2022-09-11T16:28:48;11.63;;;4.72;;
61905;SDS011;47863;55.766;37.672;2022-09-11T16:31:14;8.98;;;3.28;;
61905;SDS011;47863;55.766;37.672;2022-09-11T16:33:41;8.07;;;2.80;;
61905;SDS011;47863;55.766;37.672;2022-09-11T16:36:12;10.65;;;2.90;;
61905;SDS011;47863;55.766;37.672;2022-09-11T16:38:40;10.05;;;3.00;;
61905;SDS011;47863;55.766;37.672;2022-09-11T16:43:40;9.40;;;2.58;;
61905;SDS011;47863;55.766;37.672;2022-09-11T16:46:09;10.40;;;2.80;;
61905;SDS011;47863;55.766;37.672;2022-09-11T16:48:37;9.57;;;2.58;;
61905;SDS011;47863;55.766;37.672;2022-09-11T16:51:04;7.18;;;2.85;;
61905;SDS011;47863;55.766;37.672;2022-09-11T16:53:31;11.38;;;3.10;;
61905;SDS011;47863;55.766;37.672;2022-09-11T16:55:58;11.40;;;3.55;;
61905;SDS011;47863;55.766;37.672;2022-09-11T16:58:25;8.30;;;2.42;;
61905;SDS011;47863;55.766;37.672;2022-09-11T17:00:53;66.68;;;36.38;;
61905;SDS011;47863;55.766;37.672;2022-09-11T17:03:18;7.78;;;2.83;;
61905;SDS011;47863;55.766;37.672;2022-09-11T17:05:53;13.88;;;2.90;;
61905;SDS011;47863;55.766;37.672;2022-09-11T17:08:19;10.27;;;2.40;;
61905;SDS011;47863;55.766;37.672;2022-09-11T17:10:47;8.18;;;2.58;;
61905;SDS011;47863;55.766;37.672;2022-09-11T17:13:14;11.32;;;2.85;;
61905;SDS011;47863;55.766;37.672;2022-09-11T17:15:40;6.70;;;2.65;;